sensor_id;sensor_type;location;lat;lon;timestamp;P1;durP1;ratioP1;P2;durP2;ratioP2
21166;SDS011;10741;52.272;9.580;2022-10-13T00:01:16;11.47;;;6.83;;
21166;SDS011;10741;52.272;9.580;2022-10-13T00:03:43;9.47;;;7.33;;
21166;SDS011;10741;52.272;9.580;2022-10-13T00:06:13;9.63;;;6.60;;
21166;SDS011;10741;52.272;9.580;2022-10-13T00:08:41;12.10;;;7.73;;
21166;SDS011;10741;52.272;9.580;2022-10-13T00:11:19;13.63;;;7.60;;
21166;SDS011;10741;52.272;9.580;2022-10-13T00:13:47;10.07;;;6.70;;
21166;SDS011;10741;52.272;9.580;2022-10-13T00:16:15;9.77;;;7.17;;
21166;SDS011;10741;52.272;9.580;2022-10-13T00:18:42;10.30;;;7.20;;
21166;SDS011;10741;52.272;9.580;2022-10-13T00:21:09;13.17;;;7.77;;
21166;SDS011;10741;52.272;9.580;2022-10-13T00:23:38;9.77;;;7.00;;
21166;SDS011;10741;52.272;9.580;2022-10-13T00:26:04;12.17;;;6.93;;
21166;SDS011;10741;52.272;9.580;2022-10-13T00:28:33;9.17;;;6.37;;
21166;SDS011;10741;52.272;9.580;2022-10-13T00:30:59;11.03;;;7.07;;
21166;SDS011;10741;52.272;9.580;2022-10-13T00:33:24;11.10;;;7.33;;
21166;SDS011;10741;52.272;9.580;2022-10-13T00:35:50;10.33;;;6.83;;
21166;SDS011;10741;52.272;9.580;2022-10-13T00:38:17;11.23;;;7.50;;
21166;SDS011;10741;52.272;9.580;2022-10-13T00:40:45;11.53;;;7.67;;
21166;SDS011;10741;52.272;9.580;2022-10-13T00:43:23;10.47;;;8.27;;
21166;SDS011;10741;52.272;9.580;2022-10-13T00:46:09;12.97;;;7.43;;
21166;SDS011;10741;52.272;9.580;2022-10-13T00:48:35;13.60;;;7.70;;
21166;SDS011;10741;52.272;9.580;2022-10-13T00:51:01;13.23;;;7.67;;
21166;SDS011;10741;52.272;9.580;2022-10-13T00:53:27;11.63;;;7.33;;
21166;SDS011;10741;52.272;9.580;2022-10-13T00:55:57;12.37;;;7.87;;
21166;SDS011;10741;52.272;9.580;2022-10-13T00:58:23;11.67;;;7.67;;
21166;SDS011;10741;52.272;9.580;2022-10-13T01:00:55;11.43;;;7.50;;
21166;SDS011;10741;52.272;9.580;2022-10-13T01:03:21;13.43;;;8.17;;
21166;SDS011;10741;52.272;9.580;2022-10-13T01:05:47;11.77;;;7.80;;
21166;SDS011;10741;52.272;9.580;2022-10-13T01:08:15;13.13;;;8.20;;
21166;SDS011;10741;52.272;9.580;2022-10-13T01:10:44;11.50;;;7.93;;
21166;SDS011;10741;52.272;9.580;2022-10-13T01:16:14;14.87;;;8.07;;
21166;SDS011;10741;52.272;9.580;2022-10-13T01:35:29;21.27;;;11.73;;
21166;SDS011;10741;52.272;9.580;2022-10-13T01:38:11;21.73;;;12.43;;
21166;SDS011;10741;52.272;9.580;2022-10-13T01:40:41;20.07;;;11.10;;
21166;SDS011;10741;52.272;9.580;2022-10-13T01:43:18;23.07;;;12.50;;
21166;SDS011;10741;52.272;9.580;2022-10-13T01:45:53;21.77;;;12.30;;
21166;SDS011;10741;52.272;9.580;2022-10-13T01:48:23;18.50;;;13.43;;
21166;SDS011;10741;52.272;9.580;2022-10-13T01:50:51;23.17;;;13.63;;
21166;SDS011;10741;52.272;9.580;2022-10-13T01:53:18;20.00;;;12.17;;
21166;SDS011;10741;52.272;9.580;2022-10-13T01:56:03;19.70;;;12.83;;
21166;SDS011;10741;52.272;9.580;2022-10-13T01:58:32;20.43;;;11.73;;
21166;SDS011;10741;52.272;9.580;2022-10-13T02:01:04;19.50;;;10.83;;
21166;SDS011;10741;52.272;9.580;2022-10-13T02:04:20;20.20;;;9.90;;
21166;SDS011;10741;52.272;9.580;2022-10-13T02:06:50;16.80;;;9.47;;
21166;SDS011;10741;52.272;9.580;2022-10-13T02:12:08;17.07;;;9.63;;
21166;SDS011;10741;52.272;9.580;2022-10-13T02:14:42;18.60;;;9.57;;
21166;SDS011;10741;52.272;9.580;2022-10-13T02:17:10;15.57;;;9.53;;
21166;SDS011;10741;52.272;9.580;2022-10-13T02:19:36;16.57;;;9.70;;
21166;SDS011;10741;52.272;9.580;2022-10-13T02:22:04;15.20;;;9.00;;
21166;SDS011;10741;52.272;9.580;2022-10-13T02:24:32;15.33;;;9.50;;
21166;SDS011;10741;52.272;9.580;2022-10-13T02:26:58;18.90;;;10.00;;
21166;SDS011;10741;52.272;9.580;2022-10-13T02:29:24;17.03;;;10.20;;
21166;SDS011;10741;52.272;9.580;2022-10-13T02:31:50;19.47;;;10.53;;
21166;SDS011;10741;52.272;9.580;2022-10-13T02:34:18;18.83;;;10.20;;
21166;SDS011;10741;52.272;9.580;2022-10-13T02:36:44;17.77;;;10.80;;
21166;SDS011;10741;52.272;9.580;2022-10-13T02:39:10;17.77;;;11.33;;
21166;SDS011;10741;52.272;9.580;2022-10-13T02:41:36;17.27;;;11.40;;
21166;SDS011;10741;52.272;9.580;2022-10-13T02:44:02;19.13;;;11.13;;
21166;SDS011;10741;52.272;9.580;2022-10-13T02:46:28;21.83;;;11.10;;
21166;SDS011;10741;52.272;9.580;2022-10-13T02:48:54;17.57;;;10.67;;
21166;SDS011;10741;52.272;9.580;2022-10-13T02:51:19;22.03;;;11.03;;
21166;SDS011;10741;52.272;9.580;2022-10-13T02:53:45;17.00;;;10.80;;
21166;SDS011;10741;52.272;9.580;2022-10-13T02:56:11;16.77;;;10.70;;
21166;SDS011;10741;52.272;9.580;2022-10-13T02:58:37;19.03;;;10.90;;
21166;SDS011;10741;52.272;9.580;2022-10-13T03:01:06;16.13;;;11.10;;
21166;SDS011;10741;52.272;9.580;2022-10-13T03:03:34;16.00;;;10.70;;
21166;SDS011;10741;52.272;9.580;2022-10-13T03:06:00;20.90;;;11.57;;
21166;SDS011;10741;52.272;9.580;2022-10-13T03:08:26;17.93;;;10.63;;
21166;SDS011;10741;52.272;9.580;2022-10-13T03:10:53;20.20;;;11.73;;
21166;SDS011;10741;52.272;9.580;2022-10-13T03:13:19;20.77;;;11.80;;
21166;SDS011;10741;52.272;9.580;2022-10-13T03:15:45;22.07;;;11.60;;
21166;SDS011;10741;52.272;9.580;2022-10-13T03:18:11;22.63;;;11.93;;
21166;SDS011;10741;52.272;9.580;2022-10-13T03:20:37;16.20;;;11.07;;
21166;SDS011;10741;52.272;9.580;2022-10-13T03:23:03;19.00;;;11.30;;
21166;SDS011;10741;52.272;9.580;2022-10-13T03:25:31;18.67;;;10.70;;
21166;SDS011;10741;52.272;9.580;2022-10-13T03:27:57;17.87;;;11.93;;
21166;SDS011;10741;52.272;9.580;2022-10-13T03:30:23;19.63;;;11.50;;
21166;SDS011;10741;52.272;9.580;2022-10-13T03:32:49;21.27;;;11.73;;
21166;SDS011;10741;52.272;9.580;2022-10-13T03:35:15;20.47;;;11.27;;
21166;SDS011;10741;52.272;9.580;2022-10-13T03:37:41;17.43;;;12.37;;
21166;SDS011;10741;52.272;9.580;2022-10-13T03:40:07;15.77;;;11.67;;
21166;SDS011;10741;52.272;9.580;2022-10-13T03:42:34;19.47;;;11.73;;
21166;SDS011;10741;52.272;9.580;2022-10-13T03:45:01;20.90;;;11.67;;
21166;SDS011;10741;52.272;9.580;2022-10-13T03:47:27;19.57;;;11.60;;
21166;SDS011;10741;52.272;9.580;2022-10-13T03:49:53;18.60;;;11.33;;
21166;SDS011;10741;52.272;9.580;2022-10-13T03:52:20;17.67;;;11.23;;
21166;SDS011;10741;52.272;9.580;2022-10-13T03:54:46;15.47;;;11.17;;
21166;SDS011;10741;52.272;9.580;2022-10-13T03:57:12;15.43;;;11.27;;
21166;SDS011;10741;52.272;9.580;2022-10-13T03:59:38;14.83;;;11.07;;
21166;SDS011;10741;52.272;9.580;2022-10-13T04:02:05;21.23;;;11.60;;
21166;SDS011;10741;52.272;9.580;2022-10-13T04:04:31;19.37;;;11.33;;
21166;SDS011;10741;52.272;9.580;2022-10-13T04:06:57;21.30;;;10.93;;
21166;SDS011;10741;52.272;9.580;2022-10-13T04:09:23;20.07;;;12.53;;
21166;SDS011;10741;52.272;9.580;2022-10-13T04:11:49;20.30;;;11.80;;
21166;SDS011;10741;52.272;9.580;2022-10-13T04:14:16;20.50;;;12.00;;
21166;SDS011;10741;52.272;9.580;2022-10-13T04:16:42;17.37;;;12.07;;
21166;SDS011;10741;52.272;9.580;2022-10-13T04:19:09;18.50;;;11.80;;
21166;SDS011;10741;52.272;9.580;2022-10-13T04:21:36;19.60;;;10.77;;
21166;SDS011;10741;52.272;9.580;2022-10-13T04:24:03;16.57;;;11.10;;
21166;SDS011;10741;52.272;9.580;2022-10-13T04:26:30;19.13;;;11.90;;
21166;SDS011;10741;52.272;9.580;2022-10-13T04:28:58;16.50;;;11.83;;
21166;SDS011;10741;52.272;9.580;2022-10-13T04:31:24;19.30;;;11.20;;
21166;SDS011;10741;52.272;9.580;2022-10-13T04:33:51;19.57;;;12.17;;
21166;SDS011;10741;52.272;9.580;2022-10-13T04:36:17;22.87;;;12.07;;
21166;SDS011;10741;52.272;9.580;2022-10-13T04:38:43;17.17;;;12.40;;
21166;SDS011;10741;52.272;9.580;2022-10-13T04:41:10;18.23;;;12.17;;
21166;SDS011;10741;52.272;9.580;2022-10-13T04:43:36;20.43;;;11.73;;
21166;SDS011;10741;52.272;9.580;2022-10-13T04:46:06;19.20;;;12.93;;
21166;SDS011;10741;52.272;9.580;2022-10-13T04:48:40;21.63;;;12.10;;
21166;SDS011;10741;52.272;9.580;2022-10-13T04:51:09;17.40;;;12.10;;
21166;SDS011;10741;52.272;9.580;2022-10-13T04:53:37;22.30;;;12.70;;
21166;SDS011;10741;52.272;9.580;2022-10-13T04:56:07;21.30;;;12.47;;
21166;SDS011;10741;52.272;9.580;2022-10-13T04:58:35;16.93;;;11.93;;
21166;SDS011;10741;52.272;9.580;2022-10-13T05:01:02;18.30;;;12.33;;
21166;SDS011;10741;52.272;9.580;2022-10-13T05:03:37;21.30;;;12.37;;
21166;SDS011;10741;52.272;9.580;2022-10-13T05:06:03;20.33;;;11.53;;
21166;SDS011;10741;52.272;9.580;2022-10-13T05:08:28;21.33;;;13.17;;
21166;SDS011;10741;52.272;9.580;2022-10-13T05:10:55;19.33;;;13.47;;
21166;SDS011;10741;52.272;9.580;2022-10-13T05:13:23;20.43;;;12.53;;
21166;SDS011;10741;52.272;9.580;2022-10-13T05:15:49;20.20;;;13.10;;
21166;SDS011;10741;52.272;9.580;2022-10-13T05:18:15;22.93;;;13.00;;
21166;SDS011;10741;52.272;9.580;2022-10-13T05:20:41;18.00;;;12.83;;
21166;SDS011;10741;52.272;9.580;2022-10-13T05:23:06;25.57;;;13.20;;
21166;SDS011;10741;52.272;9.580;2022-10-13T05:25:36;21.50;;;13.67;;
21166;SDS011;10741;52.272;9.580;2022-10-13T05:28:04;19.27;;;12.73;;
21166;SDS011;10741;52.272;9.580;2022-10-13T05:30:31;20.70;;;13.43;;
21166;SDS011;10741;52.272;9.580;2022-10-13T05:32:57;21.33;;;13.20;;
21166;SDS011;10741;52.272;9.580;2022-10-13T05:35:24;22.17;;;13.50;;
21166;SDS011;10741;52.272;9.580;2022-10-13T05:37:50;18.43;;;13.43;;
21166;SDS011;10741;52.272;9.580;2022-10-13T05:40:16;19.10;;;13.00;;
21166;SDS011;10741;52.272;9.580;2022-10-13T05:42:41;20.03;;;12.40;;
21166;SDS011;10741;52.272;9.580;2022-10-13T05:45:09;21.87;;;12.37;;
21166;SDS011;10741;52.272;9.580;2022-10-13T05:47:35;17.93;;;13.07;;
21166;SDS011;10741;52.272;9.580;2022-10-13T05:50:01;21.70;;;13.60;;
21166;SDS011;10741;52.272;9.580;2022-10-13T05:52:28;22.87;;;14.07;;
21166;SDS011;10741;52.272;9.580;2022-10-13T05:54:58;22.90;;;13.83;;
21166;SDS011;10741;52.272;9.580;2022-10-13T05:57:27;21.33;;;12.50;;
21166;SDS011;10741;52.272;9.580;2022-10-13T05:59:58;19.00;;;13.53;;
21166;SDS011;10741;52.272;9.580;2022-10-13T06:02:25;18.10;;;12.33;;
21166;SDS011;10741;52.272;9.580;2022-10-13T06:04:59;18.43;;;12.60;;
21166;SDS011;10741;52.272;9.580;2022-10-13T06:07:27;18.50;;;12.87;;
21166;SDS011;10741;52.272;9.580;2022-10-13T06:09:55;21.07;;;14.10;;
21166;SDS011;10741;52.272;9.580;2022-10-13T06:12:22;22.37;;;14.37;;
21166;SDS011;10741;52.272;9.580;2022-10-13T06:14:48;25.87;;;13.80;;
21166;SDS011;10741;52.272;9.580;2022-10-13T06:17:14;17.37;;;12.60;;
21166;SDS011;10741;52.272;9.580;2022-10-13T06:19:39;20.50;;;13.70;;
21166;SDS011;10741;52.272;9.580;2022-10-13T06:22:05;21.93;;;13.73;;
21166;SDS011;10741;52.272;9.580;2022-10-13T06:24:32;21.17;;;13.40;;
21166;SDS011;10741;52.272;9.580;2022-10-13T06:26:57;19.93;;;12.63;;
21166;SDS011;10741;52.272;9.580;2022-10-13T06:29:23;19.33;;;14.10;;
21166;SDS011;10741;52.272;9.580;2022-10-13T06:31:49;17.67;;;13.00;;
21166;SDS011;10741;52.272;9.580;2022-10-13T06:34:15;26.00;;;13.23;;
21166;SDS011;10741;52.272;9.580;2022-10-13T06:36:41;16.93;;;12.07;;
21166;SDS011;10741;52.272;9.580;2022-10-13T06:39:07;17.73;;;12.57;;
21166;SDS011;10741;52.272;9.580;2022-10-13T06:41:33;22.67;;;13.03;;
21166;SDS011;10741;52.272;9.580;2022-10-13T06:43:59;17.97;;;11.47;;
21166;SDS011;10741;52.272;9.580;2022-10-13T06:46:24;20.07;;;12.33;;
21166;SDS011;10741;52.272;9.580;2022-10-13T06:48:50;22.00;;;11.90;;
21166;SDS011;10741;52.272;9.580;2022-10-13T06:51:16;16.30;;;11.97;;
21166;SDS011;10741;52.272;9.580;2022-10-13T06:53:42;18.07;;;11.47;;
21166;SDS011;10741;52.272;9.580;2022-10-13T06:56:08;17.93;;;11.93;;
21166;SDS011;10741;52.272;9.580;2022-10-13T06:58:34;19.67;;;12.40;;
21166;SDS011;10741;52.272;9.580;2022-10-13T07:01:01;17.40;;;11.60;;
21166;SDS011;10741;52.272;9.580;2022-10-13T07:03:27;18.13;;;12.73;;
21166;SDS011;10741;52.272;9.580;2022-10-13T07:05:52;17.23;;;12.03;;
21166;SDS011;10741;52.272;9.580;2022-10-13T07:08:18;17.70;;;11.33;;
21166;SDS011;10741;52.272;9.580;2022-10-13T07:10:44;19.23;;;11.70;;
21166;SDS011;10741;52.272;9.580;2022-10-13T07:13:10;17.47;;;11.67;;
21166;SDS011;10741;52.272;9.580;2022-10-13T07:15:37;19.03;;;12.33;;
21166;SDS011;10741;52.272;9.580;2022-10-13T07:18:03;17.73;;;12.03;;
21166;SDS011;10741;52.272;9.580;2022-10-13T07:20:29;17.90;;;11.17;;
21166;SDS011;10741;52.272;9.580;2022-10-13T07:22:56;17.83;;;12.07;;
21166;SDS011;10741;52.272;9.580;2022-10-13T07:25:21;18.17;;;10.80;;
21166;SDS011;10741;52.272;9.580;2022-10-13T07:27:47;18.17;;;11.03;;
21166;SDS011;10741;52.272;9.580;2022-10-13T07:30:13;17.40;;;11.13;;
21166;SDS011;10741;52.272;9.580;2022-10-13T07:32:39;17.73;;;10.50;;
21166;SDS011;10741;52.272;9.580;2022-10-13T07:35:06;16.37;;;11.20;;
21166;SDS011;10741;52.272;9.580;2022-10-13T07:37:33;14.53;;;10.70;;
21166;SDS011;10741;52.272;9.580;2022-10-13T07:39:59;14.97;;;10.80;;
21166;SDS011;10741;52.272;9.580;2022-10-13T07:42:25;19.03;;;11.10;;
21166;SDS011;10741;52.272;9.580;2022-10-13T07:44:51;20.00;;;11.43;;
21166;SDS011;10741;52.272;9.580;2022-10-13T07:47:16;16.03;;;10.37;;
21166;SDS011;10741;52.272;9.580;2022-10-13T07:49:42;16.10;;;11.00;;
21166;SDS011;10741;52.272;9.580;2022-10-13T07:52:08;15.20;;;10.40;;
21166;SDS011;10741;52.272;9.580;2022-10-13T07:54:34;19.07;;;11.13;;
21166;SDS011;10741;52.272;9.580;2022-10-13T07:57:00;16.10;;;11.10;;
21166;SDS011;10741;52.272;9.580;2022-10-13T07:59:25;18.93;;;10.90;;
21166;SDS011;10741;52.272;9.580;2022-10-13T08:01:51;14.63;;;10.50;;
21166;SDS011;10741;52.272;9.580;2022-10-13T08:04:17;16.67;;;10.83;;
21166;SDS011;10741;52.272;9.580;2022-10-13T08:06:43;19.90;;;11.43;;
21166;SDS011;10741;52.272;9.580;2022-10-13T08:09:09;15.33;;;10.73;;
21166;SDS011;10741;52.272;9.580;2022-10-13T08:11:35;19.97;;;11.10;;
21166;SDS011;10741;52.272;9.580;2022-10-13T08:14:01;15.33;;;10.23;;
21166;SDS011;10741;52.272;9.580;2022-10-13T08:16:28;16.03;;;9.83;;
21166;SDS011;10741;52.272;9.580;2022-10-13T08:18:58;15.70;;;9.93;;
21166;SDS011;10741;52.272;9.580;2022-10-13T08:21:25;13.43;;;10.23;;
21166;SDS011;10741;52.272;9.580;2022-10-13T08:23:52;16.93;;;9.03;;
21166;SDS011;10741;52.272;9.580;2022-10-13T08:26:19;17.27;;;10.13;;
21166;SDS011;10741;52.272;9.580;2022-10-13T08:28:51;18.80;;;10.10;;
21166;SDS011;10741;52.272;9.580;2022-10-13T08:31:17;17.93;;;9.90;;
21166;SDS011;10741;52.272;9.580;2022-10-13T08:33:43;16.13;;;9.53;;
21166;SDS011;10741;52.272;9.580;2022-10-13T08:36:12;16.23;;;8.83;;
21166;SDS011;10741;52.272;9.580;2022-10-13T08:38:39;14.33;;;9.00;;
21166;SDS011;10741;52.272;9.580;2022-10-13T08:44:03;17.80;;;9.43;;
21166;SDS011;10741;52.272;9.580;2022-10-13T08:49:37;12.37;;;9.10;;
21166;SDS011;10741;52.272;9.580;2022-10-13T08:52:05;15.87;;;9.50;;
21166;SDS011;10741;52.272;9.580;2022-10-13T08:54:31;14.83;;;9.17;;
21166;SDS011;10741;52.272;9.580;2022-10-13T08:56:57;14.07;;;9.13;;
21166;SDS011;10741;52.272;9.580;2022-10-13T08:59:23;13.43;;;8.80;;
21166;SDS011;10741;52.272;9.580;2022-10-13T09:01:51;16.53;;;9.03;;
21166;SDS011;10741;52.272;9.580;2022-10-13T09:07:13;15.60;;;10.07;;
21166;SDS011;10741;52.272;9.580;2022-10-13T09:09:48;17.63;;;9.33;;
21166;SDS011;10741;52.272;9.580;2022-10-13T09:12:16;11.03;;;7.93;;
21166;SDS011;10741;52.272;9.580;2022-10-13T09:14:55;18.17;;;9.07;;
21166;SDS011;10741;52.272;9.580;2022-10-13T09:17:27;14.97;;;8.83;;
21166;SDS011;10741;52.272;9.580;2022-10-13T09:22:42;12.97;;;9.73;;
21166;SDS011;10741;52.272;9.580;2022-10-13T09:25:19;13.03;;;8.97;;
21166;SDS011;10741;52.272;9.580;2022-10-13T09:27:50;41.37;;;11.20;;
21166;SDS011;10741;52.272;9.580;2022-10-13T09:30:43;17.63;;;10.17;;
21166;SDS011;10741;52.272;9.580;2022-10-13T09:40:56;12.57;;;8.83;;
21166;SDS011;10741;52.272;9.580;2022-10-13T09:43:34;16.83;;;9.40;;
21166;SDS011;10741;52.272;9.580;2022-10-13T09:46:20;15.40;;;8.77;;
21166;SDS011;10741;52.272;9.580;2022-10-13T09:49:17;13.53;;;8.50;;
21166;SDS011;10741;52.272;9.580;2022-10-13T09:52:00;17.40;;;8.43;;
21166;SDS011;10741;52.272;9.580;2022-10-13T10:00:26;11.33;;;7.90;;
21166;SDS011;10741;52.272;9.580;2022-10-13T10:02:54;12.50;;;7.57;;
21166;SDS011;10741;52.272;9.580;2022-10-13T10:11:01;13.13;;;7.63;;
21166;SDS011;10741;52.272;9.580;2022-10-13T10:13:29;13.37;;;7.80;;
21166;SDS011;10741;52.272;9.580;2022-10-13T10:16:04;11.10;;;7.33;;
21166;SDS011;10741;52.272;9.580;2022-10-13T10:21:33;10.53;;;7.87;;
21166;SDS011;10741;52.272;9.580;2022-10-13T10:27:02;13.60;;;7.17;;
21166;SDS011;10741;52.272;9.580;2022-10-13T10:34:58;11.47;;;7.47;;
21166;SDS011;10741;52.272;9.580;2022-10-13T10:45:50;11.27;;;7.23;;
21166;SDS011;10741;52.272;9.580;2022-10-13T10:48:23;10.63;;;6.83;;
21166;SDS011;10741;52.272;9.580;2022-10-13T10:50:52;12.23;;;7.63;;
21166;SDS011;10741;52.272;9.580;2022-10-13T10:53:26;13.00;;;6.93;;
21166;SDS011;10741;52.272;9.580;2022-10-13T10:56:07;12.23;;;7.27;;
21166;SDS011;10741;52.272;9.580;2022-10-13T11:01:32;9.50;;;7.20;;
21166;SDS011;10741;52.272;9.580;2022-10-13T11:06:59;11.30;;;7.20;;
21166;SDS011;10741;52.272;9.580;2022-10-13T11:17:37;9.60;;;7.13;;
21166;SDS011;10741;52.272;9.580;2022-10-13T11:39:00;10.63;;;6.17;;
21166;SDS011;10741;52.272;9.580;2022-10-13T11:41:28;13.13;;;6.90;;
21166;SDS011;10741;52.272;9.580;2022-10-13T11:44:16;10.33;;;6.77;;
21166;SDS011;10741;52.272;9.580;2022-10-13T11:50:36;10.30;;;6.50;;
21166;SDS011;10741;52.272;9.580;2022-10-13T11:53:10;7.97;;;5.77;;
21166;SDS011;10741;52.272;9.580;2022-10-13T11:55:46;9.43;;;5.77;;
21166;SDS011;10741;52.272;9.580;2022-10-13T11:58:19;9.30;;;5.77;;
21166;SDS011;10741;52.272;9.580;2022-10-13T12:03:33;10.00;;;5.50;;
21166;SDS011;10741;52.272;9.580;2022-10-13T12:06:05;9.83;;;5.07;;
21166;SDS011;10741;52.272;9.580;2022-10-13T12:08:57;6.33;;;4.77;;
21166;SDS011;10741;52.272;9.580;2022-10-13T12:11:29;11.77;;;5.87;;
21166;SDS011;10741;52.272;9.580;2022-10-13T12:13:57;7.87;;;5.30;;
21166;SDS011;10741;52.272;9.580;2022-10-13T12:16:25;7.33;;;4.67;;
21166;SDS011;10741;52.272;9.580;2022-10-13T12:18:52;8.10;;;4.67;;
21166;SDS011;10741;52.272;9.580;2022-10-13T12:21:19;6.53;;;4.50;;
21166;SDS011;10741;52.272;9.580;2022-10-13T12:23:47;8.13;;;5.43;;
21166;SDS011;10741;52.272;9.580;2022-10-13T12:26:18;8.57;;;4.73;;
21166;SDS011;10741;52.272;9.580;2022-10-13T12:28:54;10.50;;;6.03;;
21166;SDS011;10741;52.272;9.580;2022-10-13T12:31:39;6.27;;;4.93;;
21166;SDS011;10741;52.272;9.580;2022-10-13T12:36:40;6.60;;;4.50;;
21166;SDS011;10741;52.272;9.580;2022-10-13T12:39:10;6.90;;;5.13;;
21166;SDS011;10741;52.272;9.580;2022-10-13T12:41:45;10.57;;;4.50;;
21166;SDS011;10741;52.272;9.580;2022-10-13T12:44:21;7.50;;;3.83;;
21166;SDS011;10741;52.272;9.580;2022-10-13T12:46:51;7.43;;;4.20;;
21166;SDS011;10741;52.272;9.580;2022-10-13T12:51:48;7.07;;;4.30;;
21166;SDS011;10741;52.272;9.580;2022-10-13T12:54:24;6.73;;;4.23;;
21166;SDS011;10741;52.272;9.580;2022-10-13T12:56:53;7.97;;;4.40;;
21166;SDS011;10741;52.272;9.580;2022-10-13T12:59:22;6.37;;;3.87;;
21166;SDS011;10741;52.272;9.580;2022-10-13T13:01:53;9.83;;;4.97;;
21166;SDS011;10741;52.272;9.580;2022-10-13T13:12:05;9.03;;;5.10;;
21166;SDS011;10741;52.272;9.580;2022-10-13T13:14:43;9.70;;;4.93;;
21166;SDS011;10741;52.272;9.580;2022-10-13T13:19:41;7.27;;;4.87;;
21166;SDS011;10741;52.272;9.580;2022-10-13T13:22:09;6.53;;;5.30;;
21166;SDS011;10741;52.272;9.580;2022-10-13T13:24:35;7.73;;;5.17;;
21166;SDS011;10741;52.272;9.580;2022-10-13T13:27:09;8.30;;;5.67;;
21166;SDS011;10741;52.272;9.580;2022-10-13T13:29:40;10.33;;;5.30;;
21166;SDS011;10741;52.272;9.580;2022-10-13T13:32:08;10.27;;;5.57;;
21166;SDS011;10741;52.272;9.580;2022-10-13T13:34:36;8.63;;;5.50;;
21166;SDS011;10741;52.272;9.580;2022-10-13T13:37:02;7.80;;;4.97;;
21166;SDS011;10741;52.272;9.580;2022-10-13T13:39:28;6.77;;;4.60;;
21166;SDS011;10741;52.272;9.580;2022-10-13T13:41:53;10.20;;;5.47;;
21166;SDS011;10741;52.272;9.580;2022-10-13T13:44:19;6.50;;;5.10;;
21166;SDS011;10741;52.272;9.580;2022-10-13T13:46:45;10.93;;;5.50;;
21166;SDS011;10741;52.272;9.580;2022-10-13T13:49:10;10.60;;;5.13;;
21166;SDS011;10741;52.272;9.580;2022-10-13T13:51:36;11.83;;;5.50;;
21166;SDS011;10741;52.272;9.580;2022-10-13T13:54:02;7.27;;;4.60;;
21166;SDS011;10741;52.272;9.580;2022-10-13T13:56:28;11.33;;;5.23;;
21166;SDS011;10741;52.272;9.580;2022-10-13T13:58:54;6.40;;;4.63;;
21166;SDS011;10741;52.272;9.580;2022-10-13T14:01:20;7.90;;;5.40;;
21166;SDS011;10741;52.272;9.580;2022-10-13T14:03:46;7.17;;;4.90;;
21166;SDS011;10741;52.272;9.580;2022-10-13T14:06:16;8.87;;;4.70;;
21166;SDS011;10741;52.272;9.580;2022-10-13T14:08:43;6.90;;;4.53;;
21166;SDS011;10741;52.272;9.580;2022-10-13T14:11:08;7.83;;;4.63;;
21166;SDS011;10741;52.272;9.580;2022-10-13T14:13:34;7.60;;;4.77;;
21166;SDS011;10741;52.272;9.580;2022-10-13T14:16:00;7.17;;;4.90;;
21166;SDS011;10741;52.272;9.580;2022-10-13T14:18:26;8.13;;;5.20;;
21166;SDS011;10741;52.272;9.580;2022-10-13T14:20:52;8.47;;;5.00;;
21166;SDS011;10741;52.272;9.580;2022-10-13T14:23:18;5.43;;;4.57;;
21166;SDS011;10741;52.272;9.580;2022-10-13T14:25:44;9.83;;;5.13;;
21166;SDS011;10741;52.272;9.580;2022-10-13T14:28:10;9.27;;;4.97;;
21166;SDS011;10741;52.272;9.580;2022-10-13T14:30:38;6.67;;;4.37;;
21166;SDS011;10741;52.272;9.580;2022-10-13T14:33:05;9.60;;;5.67;;
21166;SDS011;10741;52.272;9.580;2022-10-13T14:35:31;12.80;;;5.00;;
21166;SDS011;10741;52.272;9.580;2022-10-13T14:37:56;8.83;;;5.07;;
21166;SDS011;10741;52.272;9.580;2022-10-13T14:40:22;7.63;;;5.07;;
21166;SDS011;10741;52.272;9.580;2022-10-13T14:42:48;10.20;;;4.70;;
21166;SDS011;10741;52.272;9.580;2022-10-13T14:45:14;7.97;;;4.93;;
21166;SDS011;10741;52.272;9.580;2022-10-13T14:47:40;7.90;;;4.90;;
21166;SDS011;10741;52.272;9.580;2022-10-13T14:50:06;8.57;;;4.43;;
21166;SDS011;10741;52.272;9.580;2022-10-13T14:52:33;8.27;;;4.83;;
21166;SDS011;10741;52.272;9.580;2022-10-13T14:54:59;8.67;;;5.20;;
21166;SDS011;10741;52.272;9.580;2022-10-13T14:57:24;9.47;;;5.27;;
21166;SDS011;10741;52.272;9.580;2022-10-13T14:59:50;8.00;;;4.60;;
21166;SDS011;10741;52.272;9.580;2022-10-13T15:02:16;7.77;;;4.80;;
21166;SDS011;10741;52.272;9.580;2022-10-13T15:04:42;7.63;;;5.17;;
21166;SDS011;10741;52.272;9.580;2022-10-13T15:07:07;9.77;;;5.10;;
21166;SDS011;10741;52.272;9.580;2022-10-13T15:09:33;7.17;;;4.50;;
21166;SDS011;10741;52.272;9.580;2022-10-13T15:11:59;7.43;;;4.97;;
21166;SDS011;10741;52.272;9.580;2022-10-13T15:14:24;10.87;;;4.87;;
21166;SDS011;10741;52.272;9.580;2022-10-13T15:16:50;10.90;;;4.70;;
21166;SDS011;10741;52.272;9.580;2022-10-13T15:19:16;7.70;;;4.43;;
21166;SDS011;10741;52.272;9.580;2022-10-13T15:21:42;11.37;;;5.50;;
21166;SDS011;10741;52.272;9.580;2022-10-13T15:24:08;9.23;;;5.07;;
21166;SDS011;10741;52.272;9.580;2022-10-13T15:26:35;8.07;;;5.00;;
21166;SDS011;10741;52.272;9.580;2022-10-13T15:29:01;12.03;;;4.60;;
21166;SDS011;10741;52.272;9.580;2022-10-13T15:31:27;13.77;;;5.10;;
21166;SDS011;10741;52.272;9.580;2022-10-13T15:33:55;6.70;;;4.67;;
21166;SDS011;10741;52.272;9.580;2022-10-13T15:36:21;9.50;;;4.63;;
21166;SDS011;10741;52.272;9.580;2022-10-13T15:38:48;6.90;;;4.40;;
21166;SDS011;10741;52.272;9.580;2022-10-13T15:41:15;6.77;;;4.13;;
21166;SDS011;10741;52.272;9.580;2022-10-13T15:43:41;5.50;;;4.70;;
21166;SDS011;10741;52.272;9.580;2022-10-13T15:46:09;8.30;;;4.50;;
21166;SDS011;10741;52.272;9.580;2022-10-13T15:48:37;6.87;;;4.53;;
21166;SDS011;10741;52.272;9.580;2022-10-13T15:51:12;8.83;;;4.90;;
21166;SDS011;10741;52.272;9.580;2022-10-13T15:53:39;6.63;;;4.77;;
21166;SDS011;10741;52.272;9.580;2022-10-13T15:56:06;10.27;;;4.70;;
21166;SDS011;10741;52.272;9.580;2022-10-13T15:58:33;8.60;;;4.87;;
21166;SDS011;10741;52.272;9.580;2022-10-13T16:01:00;7.63;;;4.80;;
21166;SDS011;10741;52.272;9.580;2022-10-13T16:03:26;9.23;;;5.27;;
21166;SDS011;10741;52.272;9.580;2022-10-13T16:05:54;7.97;;;4.73;;
21166;SDS011;10741;52.272;9.580;2022-10-13T16:08:20;8.60;;;4.90;;
21166;SDS011;10741;52.272;9.580;2022-10-13T16:10:46;9.20;;;5.00;;
21166;SDS011;10741;52.272;9.580;2022-10-13T16:13:12;7.40;;;4.60;;
21166;SDS011;10741;52.272;9.580;2022-10-13T16:15:41;10.37;;;4.63;;
21166;SDS011;10741;52.272;9.580;2022-10-13T16:18:07;6.47;;;4.80;;
21166;SDS011;10741;52.272;9.580;2022-10-13T16:20:33;8.37;;;4.60;;
21166;SDS011;10741;52.272;9.580;2022-10-13T16:23:01;5.97;;;4.50;;
21166;SDS011;10741;52.272;9.580;2022-10-13T16:25:28;8.70;;;5.00;;
21166;SDS011;10741;52.272;9.580;2022-10-13T16:27:55;9.03;;;4.70;;
21166;SDS011;10741;52.272;9.580;2022-10-13T16:30:23;11.60;;;5.30;;
21166;SDS011;10741;52.272;9.580;2022-10-13T16:32:48;10.33;;;5.13;;
21166;SDS011;10741;52.272;9.580;2022-10-13T16:35:14;9.47;;;5.43;;
21166;SDS011;10741;52.272;9.580;2022-10-13T16:37:40;6.70;;;5.17;;
21166;SDS011;10741;52.272;9.580;2022-10-13T16:40:06;11.03;;;5.00;;
21166;SDS011;10741;52.272;9.580;2022-10-13T16:42:32;8.73;;;5.87;;
21166;SDS011;10741;52.272;9.580;2022-10-13T16:44:58;8.63;;;5.50;;
21166;SDS011;10741;52.272;9.580;2022-10-13T16:47:23;10.53;;;7.57;;